createdAt,value
2023-01-17T00:02:19.324Z,15.93
2023-01-17T00:05:05.749Z,16.23
2023-01-17T00:07:52.361Z,15.50
2023-01-17T00:10:22.385Z,19.05
2023-01-17T00:12:55.236Z,15.95
2023-01-17T00:15:26.251Z,16.65
2023-01-17T00:17:53.900Z,15.48
2023-01-17T00:20:42.562Z,17.02
2023-01-17T00:23:40.888Z,17.58
2023-01-17T00:26:19.176Z,16.20
2023-01-17T00:28:47.890Z,17.73
2023-01-17T00:31:16.447Z,15.85
2023-01-17T00:33:43.905Z,18.40
2023-01-17T00:36:11.970Z,17.48
2023-01-17T00:38:40.360Z,16.80
2023-01-17T00:41:13.266Z,15.93
2023-01-17T00:43:59.858Z,17.50
2023-01-17T00:46:46.105Z,16.62
2023-01-17T00:49:32.377Z,18.33
2023-01-17T00:52:18.112Z,18.23
2023-01-17T00:55:04.441Z,19.02
2023-01-17T00:57:50.347Z,17.90
2023-01-17T01:00:39.955Z,17.25
2023-01-17T01:03:29.857Z,17.80
2023-01-17T01:06:16.252Z,17.00
2023-01-17T01:09:02.015Z,17.35
2023-01-17T01:11:48.254Z,16.23
2023-01-17T01:14:33.987Z,15.52
2023-01-17T01:17:19.938Z,15.23
2023-01-17T01:20:05.813Z,15.68
2023-01-17T01:22:52.028Z,15.82
2023-01-17T01:25:38.024Z,16.98
2023-01-17T01:28:26.406Z,15.77
2023-01-17T01:31:12.121Z,14.50
2023-01-17T01:33:40.015Z,14.77
2023-01-17T01:36:08.954Z,14.45
2023-01-17T01:38:36.596Z,13.13
2023-01-17T01:41:04.555Z,13.10
2023-01-17T01:43:44.540Z,13.00
2023-01-17T01:46:25.841Z,12.30
2023-01-17T01:48:58.259Z,11.68
2023-01-17T01:51:30.023Z,12.05
2023-01-17T01:54:06.851Z,11.73
2023-01-17T01:56:36.415Z,12.48
2023-01-17T01:59:07.480Z,12.20
2023-01-17T02:01:36.129Z,12.37
2023-01-17T02:04:04.623Z,13.00
2023-01-17T02:07:10.336Z,13.50
2023-01-17T02:12:05.564Z,12.88
2023-01-17T02:14:32.954Z,11.98
2023-01-17T02:17:11.335Z,11.32
2023-01-17T02:19:50.584Z,15.13
2023-01-17T02:22:48.273Z,14.38
2023-01-17T02:25:36.685Z,14.38
2023-01-17T02:28:30.423Z,14.82
2023-01-17T02:31:04.919Z,14.98
2023-01-17T02:36:23.048Z,15.25
2023-01-17T02:39:03.037Z,15.07
2023-01-17T02:41:34.380Z,14.13
2023-01-17T02:44:02.902Z,15.38
2023-01-17T02:46:30.498Z,15.85
2023-01-17T02:48:58.347Z,16.10
2023-01-17T02:51:32.060Z,14.20
2023-01-17T02:54:17.976Z,14.50
2023-01-17T02:57:30.315Z,14.85
2023-01-17T03:00:00.193Z,14.87
2023-01-17T03:02:35.195Z,13.60
2023-01-17T03:05:10.810Z,14.43
2023-01-17T03:07:40.042Z,15.02
2023-01-17T03:10:08.481Z,15.50
2023-01-17T03:12:37.754Z,14.15
2023-01-17T03:15:12.916Z,13.32
2023-01-17T03:17:45.459Z,13.60
2023-01-17T03:20:13.278Z,13.52
2023-01-17T03:22:40.648Z,12.45
2023-01-17T03:25:08.229Z,12.00
2023-01-17T03:27:36.024Z,12.52
2023-01-17T03:30:04.607Z,12.77
2023-01-17T03:32:32.015Z,12.30
2023-01-17T03:34:59.686Z,12.55
2023-01-17T03:37:27.246Z,12.35
2023-01-17T03:39:55.008Z,12.15
2023-01-17T03:42:22.710Z,11.10
2023-01-17T03:44:50.063Z,10.43
2023-01-17T03:47:17.453Z,11.30
2023-01-17T03:49:45.203Z,10.25
2023-01-17T03:52:12.582Z,9.77
2023-01-17T03:54:39.986Z,8.50
2023-01-17T03:57:08.598Z,8.02
2023-01-17T03:59:35.966Z,8.52
2023-01-17T04:02:03.438Z,8.75
2023-01-17T04:04:31.179Z,7.62
2023-01-17T04:06:58.576Z,8.77
2023-01-17T04:09:25.952Z,8.15
2023-01-17T04:11:53.930Z,6.93
2023-01-17T04:14:21.358Z,6.75
2023-01-17T04:16:48.877Z,6.68
2023-01-17T04:19:17.365Z,6.30
2023-01-17T04:21:44.738Z,6.30
2023-01-17T04:24:12.139Z,7.30
2023-01-17T04:26:39.835Z,6.78
2023-01-17T04:29:07.203Z,6.00
2023-01-17T04:31:34.675Z,6.10
2023-01-17T04:34:03.059Z,6.25
2023-01-17T04:36:30.425Z,6.60
2023-01-17T04:38:57.807Z,5.35
2023-01-17T04:41:25.504Z,5.57
2023-01-17T04:43:52.899Z,4.72
2023-01-17T04:46:20.283Z,5.00
2023-01-17T04:48:48.874Z,5.03
2023-01-17T04:51:16.300Z,5.03
2023-01-17T04:53:43.749Z,4.53
2023-01-17T04:56:11.441Z,4.90
2023-01-17T04:58:38.855Z,4.12
2023-01-17T05:01:08.319Z,4.85
2023-01-17T05:03:36.350Z,4.72
2023-01-17T05:06:03.961Z,4.55
2023-01-17T05:08:31.499Z,4.05
2023-01-17T05:10:59.223Z,4.25
2023-01-17T05:13:26.724Z,4.65
2023-01-17T05:15:54.140Z,3.72
2023-01-17T05:18:21.879Z,3.15
2023-01-17T05:20:49.311Z,3.20
2023-01-17T05:23:16.869Z,3.22
2023-01-17T05:25:44.917Z,2.90
2023-01-17T05:28:13.213Z,3.47
2023-01-17T05:30:41.227Z,2.70
2023-01-17T05:33:10.315Z,3.05
2023-01-17T05:35:38.244Z,3.28
2023-01-17T05:38:05.696Z,2.97
2023-01-17T05:40:34.153Z,2.70
2023-01-17T05:43:03.869Z,3.60
2023-01-17T05:45:32.525Z,3.12
2023-01-17T05:48:00.648Z,2.70
2023-01-17T05:50:30.915Z,3.17
2023-01-17T05:53:00.569Z,3.53
2023-01-17T05:55:28.947Z,3.55
2023-01-17T05:57:57.740Z,3.85
2023-01-17T06:00:25.479Z,3.10
2023-01-17T06:02:57.317Z,3.08
2023-01-17T06:05:26.481Z,3.87
2023-01-17T06:07:54.838Z,3.85
2023-01-17T06:10:23.011Z,3.55
2023-01-17T06:13:00.719Z,3.58
2023-01-17T06:15:28.553Z,3.72
2023-01-17T06:17:56.220Z,4.60
2023-01-17T06:20:23.688Z,4.05
2023-01-17T06:22:51.444Z,3.62
2023-01-17T06:25:18.853Z,3.15
2023-01-17T06:27:46.350Z,4.18
2023-01-17T06:30:14.302Z,3.33
2023-01-17T06:32:41.695Z,4.32
2023-01-17T06:35:09.378Z,3.87
2023-01-17T06:37:37.516Z,3.90
2023-01-17T06:40:05.460Z,3.72
2023-01-17T06:42:32.817Z,5.05
2023-01-17T06:45:00.511Z,3.78
2023-01-17T06:47:27.967Z,4.95
2023-01-17T06:49:55.343Z,5.10
2023-01-17T06:52:23.032Z,4.60
2023-01-17T06:54:50.388Z,4.28
2023-01-17T06:57:17.731Z,5.40
2023-01-17T06:59:45.454Z,4.53
2023-01-17T07:02:12.874Z,4.47
2023-01-17T07:04:40.317Z,4.60
2023-01-17T07:07:08.170Z,4.68
2023-01-17T07:09:35.963Z,5.45
2023-01-17T07:12:03.728Z,5.03
2023-01-17T07:14:31.664Z,5.60
2023-01-17T07:16:59.165Z,4.07
2023-01-17T07:19:26.601Z,4.55
2023-01-17T07:21:54.445Z,4.32
2023-01-17T07:24:22.426Z,4.12
2023-01-17T07:26:51.002Z,3.10
2023-01-17T07:29:19.198Z,2.87
2023-01-17T07:31:48.841Z,3.00
2023-01-17T07:34:16.279Z,2.70
2023-01-17T07:36:44.013Z,2.60
2023-01-17T07:39:11.447Z,2.53
2023-01-17T07:41:41.478Z,1.87
2023-01-17T07:44:12.072Z,1.83
2023-01-17T07:46:40.184Z,1.70
2023-01-17T07:49:07.555Z,1.95
2023-01-17T07:51:35.293Z,1.50
2023-01-17T07:54:02.700Z,1.10
2023-01-17T07:56:30.075Z,1.33
2023-01-17T07:58:57.759Z,1.23
2023-01-17T08:01:25.258Z,1.00
2023-01-17T08:03:54.876Z,1.00
2023-01-17T08:06:24.809Z,0.60
2023-01-17T08:08:58.877Z,0.70
2023-01-17T08:11:26.897Z,0.68
2023-01-17T08:13:57.557Z,0.60
2023-01-17T08:16:25.284Z,0.70
2023-01-17T08:18:53.219Z,0.70
2023-01-17T08:21:20.607Z,1.00
2023-01-17T08:23:49.237Z,1.05
2023-01-17T08:26:24.132Z,1.10
2023-01-17T08:28:56.697Z,0.90
2023-01-17T08:31:24.662Z,0.50
2023-01-17T08:33:52.148Z,0.50
2023-01-17T08:36:19.621Z,0.60
2023-01-17T08:38:47.288Z,0.43
2023-01-17T08:41:14.782Z,0.60
2023-01-17T08:43:42.242Z,0.70
2023-01-17T08:46:09.965Z,2.78
2023-01-17T08:48:37.427Z,0.70
2023-01-17T08:51:05.118Z,1.70
2023-01-17T08:53:33.342Z,0.60
2023-01-17T08:56:02.094Z,0.40
2023-01-17T08:58:30.756Z,0.60
2023-01-17T09:01:06.180Z,0.80
2023-01-17T09:03:34.440Z,0.50
2023-01-17T09:06:06.842Z,0.37
2023-01-17T09:08:35.116Z,0.40
2023-01-17T09:11:11.286Z,0.22
2023-01-17T09:13:39.435Z,0.60
2023-01-17T09:16:08.011Z,0.70
2023-01-17T09:18:36.210Z,1.20
2023-01-17T09:21:17.012Z,1.08
2023-01-17T09:23:44.753Z,0.50
2023-01-17T09:26:26.295Z,0.88
2023-01-17T09:28:54.692Z,0.55
2023-01-17T09:31:23.049Z,0.80
2023-01-17T09:33:52.091Z,0.88
2023-01-17T09:36:20.656Z,0.30
2023-01-17T09:38:48.111Z,0.50
2023-01-17T09:41:31.385Z,0.40
2023-01-17T09:44:07.817Z,0.30
2023-01-17T09:46:42.653Z,0.40
2023-01-17T09:49:19.703Z,0.50
2023-01-17T09:51:48.655Z,0.50
2023-01-17T09:54:22.823Z,0.60
2023-01-17T09:57:13.444Z,0.20
2023-01-17T10:00:02.872Z,0.70
2023-01-17T10:02:58.653Z,0.30
2023-01-17T10:05:32.274Z,0.90
2023-01-17T10:08:33.428Z,1.05
2023-01-17T10:11:24.416Z,0.80
2023-01-17T10:13:54.928Z,2.95
2023-01-17T10:17:20.049Z,0.80
2023-01-17T10:20:17.771Z,0.40
2023-01-17T10:22:51.246Z,0.80
2023-01-17T10:25:43.016Z,0.50
2023-01-17T10:28:48.711Z,0.68
2023-01-17T10:31:23.315Z,1.20
2023-01-17T10:36:25.573Z,2.12
2023-01-17T10:38:56.213Z,10.60
2023-01-17T10:41:30.348Z,17.77
2023-01-17T10:44:06.254Z,3.17
2023-01-17T10:46:44.748Z,0.50
2023-01-17T10:49:18.061Z,0.35
2023-01-17T10:52:20.249Z,0.40
2023-01-17T10:55:06.130Z,0.60
2023-01-17T10:57:41.352Z,0.40
2023-01-17T11:00:32.144Z,1.90
2023-01-17T11:03:00.551Z,1.30
2023-01-17T11:05:32.840Z,1.98
2023-01-17T11:08:14.552Z,10.75
2023-01-17T11:10:50.310Z,0.80
2023-01-17T11:13:22.628Z,0.65
2023-01-17T11:15:52.754Z,0.30
2023-01-17T11:18:21.881Z,0.52
2023-01-17T11:20:49.923Z,0.65
2023-01-17T11:23:23.591Z,1.30
2023-01-17T11:25:58.160Z,0.40
2023-01-17T11:28:30.388Z,0.50
2023-01-17T11:30:59.991Z,0.40
2023-01-17T11:33:49.171Z,0.80
2023-01-17T11:36:28.909Z,0.65
2023-01-17T11:39:04.667Z,0.55
2023-01-17T11:41:36.272Z,0.40
2023-01-17T11:44:32.493Z,0.60
2023-01-17T11:47:11.774Z,0.43
2023-01-17T11:49:41.207Z,0.65
2023-01-17T11:52:18.220Z,1.30
2023-01-17T11:54:47.366Z,0.60
2023-01-17T11:57:24.448Z,0.50
2023-01-17T12:00:33.165Z,0.62
2023-01-17T12:03:39.711Z,0.80
2023-01-17T12:06:10.393Z,0.70
2023-01-17T12:09:05.555Z,0.90
2023-01-17T12:12:24.269Z,0.60
2023-01-17T12:15:20.263Z,1.05
2023-01-17T12:18:22.094Z,0.80
2023-01-17T12:20:57.819Z,0.90
2023-01-17T12:23:57.123Z,1.05
2023-01-17T12:26:38.171Z,0.90
2023-01-17T12:29:11.482Z,1.00
2023-01-17T12:31:43.195Z,0.90
2023-01-17T12:34:16.941Z,0.90
2023-01-17T12:36:53.489Z,1.27
2023-01-17T12:39:26.079Z,0.88
2023-01-17T12:42:01.109Z,0.80
2023-01-17T12:44:41.706Z,1.08
2023-01-17T12:47:09.495Z,0.95
2023-01-17T12:49:48.456Z,0.85
2023-01-17T12:52:32.078Z,0.73
2023-01-17T12:55:04.211Z,1.17
2023-01-17T12:57:35.397Z,1.40
2023-01-17T13:00:06.414Z,0.98
2023-01-17T13:03:02.192Z,0.80
2023-01-17T13:08:29.746Z,0.90
2023-01-17T13:11:20.210Z,0.80
2023-01-17T13:13:51.404Z,0.68
2023-01-17T13:16:27.578Z,0.82
2023-01-17T13:18:56.205Z,1.20
2023-01-17T13:21:31.870Z,1.67
2023-01-17T13:23:59.469Z,2.05
2023-01-17T13:26:48.813Z,1.50
2023-01-17T13:29:44.541Z,1.60
2023-01-17T13:32:45.654Z,1.17
2023-01-17T13:35:18.859Z,1.12
2023-01-17T13:37:59.839Z,1.85
2023-01-17T13:40:33.826Z,2.47
2023-01-17T13:43:03.521Z,2.80
2023-01-17T13:45:34.607Z,2.10
2023-01-17T13:48:18.158Z,3.28
2023-01-17T13:50:45.821Z,5.47
2023-01-17T13:53:32.250Z,2.03
2023-01-17T13:56:31.610Z,1.48
2023-01-17T13:59:04.993Z,1.45
2023-01-17T14:01:34.699Z,1.95
2023-01-17T14:04:07.258Z,2.60
2023-01-17T14:06:41.345Z,2.90
2023-01-17T14:09:38.503Z,2.83
2023-01-17T14:12:11.792Z,2.80
2023-01-17T14:14:42.806Z,3.67
2023-01-17T14:17:15.983Z,3.40
2023-01-17T14:19:48.177Z,5.03
2023-01-17T14:22:15.421Z,4.20
2023-01-17T14:25:01.050Z,3.55
2023-01-17T14:27:31.909Z,3.58
2023-01-17T14:30:00.497Z,2.45
2023-01-17T14:32:30.979Z,3.28
2023-01-17T14:34:58.779Z,3.25
2023-01-17T14:37:32.107Z,2.53
2023-01-17T14:40:00.834Z,2.65
2023-01-17T14:42:31.001Z,4.25
2023-01-17T14:45:04.977Z,3.15
2023-01-17T14:47:35.423Z,2.87
2023-01-17T14:50:17.836Z,2.55
2023-01-17T14:52:45.571Z,2.42
2023-01-17T14:55:19.766Z,3.00
2023-01-17T14:57:55.986Z,3.00
2023-01-17T15:00:25.359Z,2.55
2023-01-17T15:02:53.980Z,2.58
2023-01-17T15:05:23.953Z,2.67
2023-01-17T15:07:54.068Z,2.75
2023-01-17T15:10:30.924Z,2.22
2023-01-17T15:13:06.553Z,2.55
2023-01-17T15:15:38.460Z,3.00
2023-01-17T15:18:17.294Z,3.30
2023-01-17T15:21:06.534Z,3.35
2023-01-17T15:23:38.967Z,3.22
2023-01-17T15:26:08.414Z,4.75
2023-01-17T15:28:35.988Z,5.30
2023-01-17T15:31:05.156Z,3.87
2023-01-17T15:33:34.120Z,4.50
2023-01-17T15:36:03.618Z,9.30
2023-01-17T15:38:38.476Z,5.30
2023-01-17T15:41:11.619Z,3.55
2023-01-17T15:43:40.339Z,3.97
2023-01-17T15:46:21.083Z,3.53
2023-01-17T15:48:48.999Z,3.20
2023-01-17T15:51:30.263Z,3.97
2023-01-17T15:53:57.690Z,4.57
2023-01-17T15:56:32.093Z,5.37
2023-01-17T15:59:22.604Z,9.50
2023-01-17T16:01:57.686Z,7.60
2023-01-17T16:04:27.613Z,4.60
2023-01-17T16:06:54.997Z,5.00
2023-01-17T16:09:24.003Z,2.97
2023-01-17T16:11:51.596Z,2.90
2023-01-17T16:14:20.295Z,2.87
2023-01-17T16:16:52.354Z,3.55
2023-01-17T16:19:21.476Z,3.00
2023-01-17T16:21:48.997Z,3.30
2023-01-17T16:24:16.941Z,3.12
2023-01-17T16:26:44.609Z,2.80
2023-01-17T16:29:12.504Z,3.30
2023-01-17T16:31:40.510Z,3.37
2023-01-17T16:34:11.979Z,3.97
2023-01-17T16:36:39.463Z,3.15
2023-01-17T16:39:07.426Z,2.60
2023-01-17T16:41:35.300Z,3.12
2023-01-17T16:44:05.488Z,3.25
2023-01-17T16:46:33.205Z,3.15
2023-01-17T16:49:01.258Z,3.42
2023-01-17T16:51:28.859Z,3.67
2023-01-17T16:53:56.442Z,3.17
2023-01-17T16:56:24.192Z,3.22
2023-01-17T16:58:53.157Z,4.00
2023-01-17T17:01:22.993Z,3.42
2023-01-17T17:03:51.344Z,4.00
2023-01-17T17:06:19.548Z,6.10
2023-01-17T17:08:47.715Z,4.10
2023-01-17T17:11:18.399Z,3.87
2023-01-17T17:13:47.782Z,4.05
2023-01-17T17:16:26.556Z,3.42
2023-01-17T17:18:57.537Z,3.90
2023-01-17T17:21:26.770Z,3.17
2023-01-17T17:23:58.335Z,3.92
2023-01-17T17:26:29.020Z,4.97
2023-01-17T17:28:57.977Z,5.25
2023-01-17T17:31:27.178Z,5.30
2023-01-17T17:34:00.904Z,4.37
2023-01-17T17:36:30.268Z,4.47
2023-01-17T17:38:58.826Z,5.70
2023-01-17T17:41:29.136Z,4.75
2023-01-17T17:44:01.263Z,3.80
2023-01-17T17:46:29.707Z,5.45
2023-01-17T17:48:58.559Z,4.50
2023-01-17T17:51:32.899Z,5.65
2023-01-17T17:54:04.360Z,4.85
2023-01-17T17:56:34.006Z,4.80
2023-01-17T17:59:03.933Z,4.00
2023-01-17T18:01:33.044Z,3.78
2023-01-17T18:04:02.935Z,4.90
2023-01-17T18:06:31.412Z,3.70
2023-01-17T18:08:59.565Z,3.28
2023-01-17T18:11:29.879Z,3.58
2023-01-17T18:14:01.524Z,5.90
2023-01-17T18:16:35.827Z,5.37
2023-01-17T18:19:05.323Z,4.50
2023-01-17T18:21:38.421Z,6.07
2023-01-17T18:24:09.784Z,4.25
2023-01-17T18:26:39.312Z,6.55
2023-01-17T18:29:09.044Z,6.22
2023-01-17T18:31:37.791Z,4.53
2023-01-17T18:34:09.011Z,5.00
2023-01-17T18:36:39.566Z,4.65
2023-01-17T18:39:19.100Z,2.70
2023-01-17T18:41:49.791Z,2.40
2023-01-17T18:44:21.769Z,2.53
2023-01-17T18:46:53.201Z,2.70
2023-01-17T18:49:23.445Z,3.17
2023-01-17T18:51:53.083Z,2.47
2023-01-17T18:54:22.327Z,2.35
2023-01-17T18:56:51.507Z,2.58
2023-01-17T18:59:21.845Z,3.80
2023-01-17T19:01:51.193Z,4.05
2023-01-17T19:04:21.295Z,5.07
2023-01-17T19:06:50.483Z,2.25
2023-01-17T19:09:19.003Z,3.95
2023-01-17T19:11:48.137Z,5.90
2023-01-17T19:14:17.410Z,4.30
2023-01-17T19:16:46.828Z,2.85
2023-01-17T19:19:16.521Z,2.00
2023-01-17T19:21:45.583Z,2.97
2023-01-17T19:24:14.667Z,1.87
2023-01-17T19:26:45.035Z,2.25
2023-01-17T19:29:15.171Z,1.45
2023-01-17T19:31:44.137Z,1.58
2023-01-17T19:34:19.247Z,1.50
2023-01-17T19:36:48.905Z,3.08
2023-01-17T19:39:17.733Z,2.28
2023-01-17T19:41:49.702Z,7.80
2023-01-17T19:44:18.161Z,3.58
2023-01-17T19:46:47.788Z,48.03
2023-01-17T19:49:20.212Z,5.93
2023-01-17T19:51:49.894Z,9.00
2023-01-17T19:54:18.639Z,1.48
2023-01-17T19:56:47.945Z,6.22
2023-01-17T19:59:17.011Z,0.98
2023-01-17T20:01:46.100Z,1.35
2023-01-17T20:04:18.340Z,1.00
2023-01-17T20:06:47.085Z,1.30
2023-01-17T20:09:15.811Z,2.15
2023-01-17T20:11:47.076Z,7.30
2023-01-17T20:14:16.872Z,5.43
2023-01-17T20:16:47.792Z,3.20
2023-01-17T20:19:16.838Z,2.72
2023-01-17T20:21:46.712Z,3.00
2023-01-17T20:24:16.485Z,11.20
2023-01-17T20:26:47.120Z,5.05
2023-01-17T20:29:19.361Z,0.68
2023-01-17T20:31:52.757Z,0.57
2023-01-17T20:34:21.697Z,3.08
2023-01-17T20:36:55.308Z,1.60
2023-01-17T20:39:24.964Z,1.77
2023-01-17T20:41:56.213Z,1.12
2023-01-17T20:44:25.961Z,1.15
2023-01-17T20:46:54.221Z,0.82
2023-01-17T20:49:23.095Z,0.60
2023-01-17T20:51:51.374Z,0.60
2023-01-17T20:54:20.326Z,0.93
2023-01-17T20:56:48.823Z,0.52
2023-01-17T20:59:19.712Z,0.65
2023-01-17T21:01:51.831Z,0.55
2023-01-17T21:04:25.825Z,0.37
2023-01-17T21:06:54.753Z,0.50
2023-01-17T21:09:23.162Z,0.30
2023-01-17T21:11:51.890Z,0.37
2023-01-17T21:14:21.984Z,0.40
2023-01-17T21:16:50.449Z,0.37
2023-01-17T21:19:18.167Z,0.43
2023-01-17T21:21:46.367Z,0.80
2023-01-17T21:24:18.529Z,0.50
2023-01-17T21:26:47.149Z,0.68
2023-01-17T21:29:16.300Z,0.95
2023-01-17T21:31:45.172Z,1.15
2023-01-17T21:34:13.744Z,2.33
2023-01-17T21:36:42.328Z,0.90
2023-01-17T21:39:15.796Z,1.12
2023-01-17T21:41:46.765Z,0.70
2023-01-17T21:44:19.766Z,0.70
2023-01-17T21:46:48.386Z,0.85
2023-01-17T21:49:17.243Z,0.65
2023-01-17T21:51:53.982Z,1.02
2023-01-17T21:54:49.973Z,0.80
2023-01-17T21:57:38.309Z,1.58
2023-01-17T22:00:09.099Z,0.98
2023-01-17T22:02:39.927Z,1.37
2023-01-17T22:05:08.928Z,1.00
2023-01-17T22:07:38.990Z,0.70
2023-01-17T22:10:07.167Z,1.70
2023-01-17T22:12:35.016Z,4.25
2023-01-17T22:15:02.510Z,2.35
2023-01-17T22:17:30.714Z,1.80
2023-01-17T22:19:58.768Z,1.95
2023-01-17T22:22:26.291Z,1.58
2023-01-17T22:24:53.699Z,1.20
2023-01-17T22:27:21.405Z,1.60
2023-01-17T22:29:49.015Z,1.40
2023-01-17T22:32:16.442Z,2.30
2023-01-17T22:34:44.135Z,3.37
2023-01-17T22:37:11.537Z,3.12
2023-01-17T22:39:39.408Z,3.22
2023-01-17T22:42:08.471Z,1.45
2023-01-17T22:44:35.835Z,1.05
2023-01-17T22:47:03.516Z,1.40
2023-01-17T22:49:31.279Z,1.80
2023-01-17T22:51:58.892Z,1.33
2023-01-17T22:54:26.457Z,1.70
2023-01-17T22:56:54.252Z,3.47
2023-01-17T22:59:21.931Z,1.75
2023-01-17T23:01:49.307Z,1.10
2023-01-17T23:04:35.766Z,1.40
2023-01-17T23:07:03.385Z,1.42
2023-01-17T23:09:31.065Z,1.35
2023-01-17T23:11:58.624Z,1.33
2023-01-17T23:14:53.419Z,1.52
2023-01-17T23:17:42.135Z,1.98
2023-01-17T23:20:11.012Z,1.60
2023-01-17T23:22:38.688Z,2.03
2023-01-17T23:25:07.719Z,2.10
2023-01-17T23:27:56.663Z,1.80
2023-01-17T23:30:34.458Z,2.40
2023-01-17T23:33:04.521Z,2.67
2023-01-17T23:35:41.453Z,3.72
2023-01-17T23:38:29.605Z,3.17
2023-01-17T23:41:27.009Z,3.05
2023-01-17T23:43:56.389Z,3.25
2023-01-17T23:46:25.429Z,3.00
2023-01-17T23:48:53.092Z,3.08
2023-01-17T23:51:20.510Z,2.97
2023-01-17T23:53:48.220Z,2.90
2023-01-17T23:56:21.206Z,3.35
2023-01-17T23:58:49.013Z,3.00
